createdAt,value
2019-02-26T00:10:11.878Z,42.3
2019-02-26T00:25:24.768Z,42.5
2019-02-26T00:40:40.953Z,43.5
2019-02-26T00:55:56.786Z,44.4
2019-02-26T01:11:05.562Z,45
2019-02-26T01:26:14.441Z,45.7
2019-02-26T01:41:27.573Z,46.4
2019-02-26T01:56:38.904Z,48.4
2019-02-26T02:11:51.009Z,49.6
2019-02-26T02:27:03.055Z,51.6
2019-02-26T02:42:19.037Z,52.9
2019-02-26T02:57:29.953Z,52.7
2019-02-26T03:12:38.878Z,52.8
2019-02-26T03:27:46.716Z,51.7
2019-02-26T03:43:07.622Z,51.1
2019-02-26T03:58:14.708Z,52.7
2019-02-26T04:13:26.636Z,53.1
2019-02-26T04:28:36.314Z,53.9
2019-02-26T04:43:57.021Z,54
2019-02-26T04:59:06.315Z,53
2019-02-26T05:14:21.368Z,54.8
2019-02-26T05:29:25.473Z,55
2019-02-26T05:44:36.102Z,54.1
2019-02-26T05:59:49.405Z,53.3
2019-02-26T06:15:07.906Z,54.8
2019-02-26T06:30:13.514Z,53.9
2019-02-26T06:45:18.916Z,53.5
2019-02-26T07:00:38.183Z,51.2
2019-02-26T07:15:50.757Z,43
2019-02-26T07:31:09.433Z,35.4
2019-02-26T07:46:21.616Z,32.3
2019-02-26T08:01:30.466Z,29.9
2019-02-26T08:16:43.208Z,32
2019-02-26T08:31:59.341Z,33.2
2019-02-26T08:47:11.394Z,33.7
2019-02-26T09:02:24.209Z,34
2019-02-26T09:17:42.103Z,29.9
2019-02-26T09:32:52.837Z,29.6
2019-02-26T09:47:58.378Z,29.9
2019-02-26T10:03:21.119Z,29.5
2019-02-26T10:18:35.651Z,28.3
2019-02-26T10:33:51.075Z,27.5
2019-02-26T10:49:05.690Z,27
2019-02-26T11:04:17.965Z,26.1
2019-02-26T11:19:41.610Z,26.5
2019-02-26T11:34:55.654Z,24.9
2019-02-26T11:50:11.792Z,22.9
2019-02-26T12:05:33.518Z,23.5
2019-02-26T12:22:41.652Z,24.6
2019-02-26T12:37:52.900Z,24.9
2019-02-26T12:53:03.873Z,25.6
2019-02-26T13:08:16.298Z,24.6
2019-02-26T13:23:34.140Z,24.5
2019-02-26T13:38:49.604Z,24.6
2019-02-26T13:54:04.712Z,23.6
2019-02-26T14:09:20.018Z,22.8
2019-02-26T14:24:32.137Z,22.6
2019-02-26T14:39:50.656Z,23.5
2019-02-26T14:55:06.080Z,24.5
2019-02-26T15:10:21.135Z,24.8
2019-02-26T15:25:25.531Z,25.3
2019-02-26T15:40:53.498Z,26
2019-02-26T15:56:06.311Z,27.2
2019-02-26T16:11:21.225Z,27.8
2019-02-26T16:26:36.023Z,28.6
2019-02-26T16:41:46.522Z,29.1
2019-02-26T16:57:05.479Z,30.2
2019-02-26T17:12:20.107Z,29
2019-02-26T17:27:39.637Z,29.6
2019-02-26T17:42:52.044Z,31.3
2019-02-26T17:58:04.537Z,31.3
2019-02-26T18:13:21.410Z,31.6
2019-02-26T18:28:33.606Z,32.8
2019-02-26T18:43:48.296Z,32.3
2019-02-26T18:58:57.381Z,33.6
2019-02-26T19:14:16.870Z,35.1
2019-02-26T19:29:32.230Z,35.7
2019-02-26T19:44:45.015Z,35.9
2019-02-26T19:59:47.802Z,37
2019-02-26T20:15:13.542Z,38.1
2019-02-26T20:30:26.322Z,39.7
2019-02-26T20:45:39.949Z,40.6
2019-02-26T21:00:53.863Z,42
2019-02-26T21:16:01.223Z,43.1
2019-02-26T21:31:19.949Z,44.4
2019-02-26T21:46:33.002Z,45.9
2019-02-26T22:01:46.756Z,46.4
2019-02-26T22:16:59.730Z,48.5
2019-02-26T22:32:12.002Z,49
2019-02-26T22:47:24.783Z,54.2
2019-02-26T23:02:41.258Z,47.8
2019-02-26T23:17:51.259Z,50.2
2019-02-26T23:32:58.366Z,51.2
2019-02-26T23:48:16.640Z,52.5
